Time;durP1;ratioP1;P1;durP2;ratioP2;P2;SDS_P1;SDS_P2;PMS_P1;PMS_P2;Temp;Humidity;BMP_temperature;BMP_pressure;BME280_temperature;BME280_humidity;BME280_pressure;Samples;Min_cycle;Max_cycle;Signal;HPM_P1;HPM_P2
2023/01/05 00:01:09;;;;;;;;;;;3.00;99.90;;;;;;5011125;28;19924;-80
2023/01/05 00:03:35;;;;;;;;;;;3.10;99.90;;;;;;5009879;28;19980;-80
2023/01/05 00:06:09;;;;;;;;;;;3.20;99.90;;;;;;4993729;28;19909;-79
2023/01/05 00:08:36;;;;;;;;;;;3.30;99.90;;;;;;5009416;28;19935;-80
2023/01/05 00:22:31;;;;;;;;;;;2.80;99.90;;;;;;5004138;28;19916;-78
2023/01/05 00:24:57;;;;;;;;;;;2.70;99.90;;;;;;4986356;28;19932;-77
2023/01/05 00:27:23;;;;;;;;;;;3.60;99.90;;;;;;5005077;28;19905;-77
2023/01/05 00:29:49;;;;;;;;;;;2.70;99.90;;;;;;5005370;28;19913;-78
2023/01/05 00:32:14;;;;;;;;;;;2.70;99.90;;;;;;4996392;28;19974;-78
2023/01/05 00:34:43;;;;;;;;;;;2.70;99.90;;;;;;5001230;28;19909;-79
2023/01/05 00:37:11;;;;;;;;;;;2.70;99.90;;;;;;5003078;28;19918;-78
2023/01/05 00:39:37;;;;;;;;;;;2.70;99.90;;;;;;5007760;28;19918;-77
2023/01/05 00:42:03;;;;;;;;;;;2.70;99.90;;;;;;5003937;28;19928;-78
2023/01/05 00:44:28;;;;;;;;;;;2.60;99.90;;;;;;4997668;28;19954;-78
2023/01/05 00:46:54;;;;;;;;;;;2.60;99.90;;;;;;5000854;28;19906;-78
2023/01/05 00:49:19;;;;;;;;;;;2.50;99.90;;;;;;4999420;28;19909;-78
2023/01/05 00:51:45;;;;;;;;;;;2.50;99.90;;;;;;4996010;28;19924;-79
2023/01/05 00:54:15;;;;;;;;;;;2.50;99.90;;;;;;5014980;28;19921;-77
2023/01/05 00:56:41;;;;;;;;;;;2.60;99.90;;;;;;5024551;28;19910;-79
2023/01/05 00:59:12;;;;;;;;;;;2.60;99.90;;;;;;5024500;28;19963;-78
2023/01/05 01:01:38;;;;;;;;;;;2.60;99.90;;;;;;5022222;28;19909;-79
2023/01/05 01:04:06;;;;;;;;;;;2.60;99.90;;;;;;5021357;28;19920;-78
2023/01/05 01:06:39;;;;;;;;;;;2.60;99.90;;;;;;5019721;28;19996;-78
2023/01/05 01:09:05;;;;;;;;;;;2.70;99.90;;;;;;5021412;28;19960;-78
2023/01/05 01:11:31;;;;;;;;;;;2.60;99.90;;;;;;5023156;28;19926;-78
2023/01/05 01:13:56;;;;;;;;;;;0.80;99.90;;;;;;5003583;28;19940;-78
2023/01/05 01:16:23;;;;;;;;;;;2.50;99.90;;;;;;5003744;28;19914;-78
2023/01/05 01:18:49;;;;;;;;;;;2.50;99.90;;;;;;5024880;28;19932;-78
2023/01/05 01:21:14;;;;;;;;;;;1.70;99.90;;;;;;5021713;28;20045;-78
2023/01/05 01:23:40;;;;;;;;;;;2.50;99.90;;;;;;5022921;28;19909;-78
2023/01/05 01:26:15;;;;;;;;;;;2.40;99.90;;;;;;5029208;28;19937;-79
2023/01/05 01:28:41;;;;;;;;;;;2.40;99.90;;;;;;5024210;28;19906;-78
2023/01/05 01:31:06;;;;;;;;;;;2.40;99.90;;;;;;5002132;28;20043;-78
2023/01/05 01:33:32;;;;;;;;;;;2.50;99.90;;;;;;5023100;28;19913;-79
2023/01/05 01:36:02;;;;;;;;;;;2.40;99.90;;;;;;5022686;28;19909;-78
2023/01/05 01:38:28;;;;;;;;;;;5.40;99.90;;;;;;5025472;28;19906;-79
2023/01/05 01:40:54;;;;;;;;;;;1.50;99.90;;;;;;5026282;28;19924;-79
2023/01/05 01:43:37;;;;;;;;;;;2.40;99.90;;;;;;5019446;28;19916;-80
2023/01/05 01:46:03;;;;;;;;;;;2.40;99.90;;;;;;4987286;28;19917;-77
2023/01/05 01:48:40;;;;;;;;;;;2.40;99.90;;;;;;5022908;28;19906;-77
2023/01/05 01:51:11;;;;;;;;;;;2.40;99.90;;;;;;5024720;28;20411;-79
2023/01/05 01:53:38;;;;;;;;;;;2.50;99.90;;;;;;5020863;28;19929;-79
2023/01/05 01:56:05;;;;;;;;;;;2.30;99.90;;;;;;5020943;28;19916;-79
2023/01/05 01:58:31;;;;;;;;;;;2.50;99.90;;;;;;5022936;28;20512;-78
2023/01/05 02:01:01;;;;;;;;;;;1.50;99.90;;;;;;5022804;28;19967;-78
2023/01/05 02:03:31;;;;;;;;;;;2.60;99.90;;;;;;5008061;28;19920;-78
2023/01/05 02:05:57;;;;;;;;;;;2.60;99.90;;;;;;5000604;28;19914;-78
2023/01/05 02:08:30;;;;;;;;;;;2.70;99.90;;;;;;5017892;28;19906;-77
2023/01/05 02:11:16;;;;;;;;;;;2.80;99.90;;;;;;5048069;28;19905;-78
2023/01/05 02:13:48;;;;;;;;;;;2.80;99.90;;;;;;5046256;28;20322;-77
2023/01/05 02:16:17;;;;;;;;;;;2.80;99.90;;;;;;5036509;28;19935;-78
2023/01/05 02:19:06;;;;;;;;;;;2.00;99.90;;;;;;5033200;28;19917;-78
2023/01/05 02:22:17;;;;;;;;;;;2.80;99.90;;;;;;4987474;28;19914;-78
2023/01/05 02:24:49;;;;;;;;;;;2.80;99.90;;;;;;4958622;28;19938;-79
2023/01/05 02:27:35;;;;;;;;;;;2.80;99.90;;;;;;4971024;28;19961;-81
2023/01/05 02:30:06;;;;;;;;;;;2.80;99.90;;;;;;4978076;28;19906;-77
2023/01/05 02:32:53;;;;;;;;;;;2.80;99.90;;;;;;4979873;28;19906;-78
2023/01/05 02:35:35;;;;;;;;;;;2.80;99.90;;;;;;4984147;28;20019;-79
2023/01/05 02:38:06;;;;;;;;;;;2.70;99.90;;;;;;4984928;28;19906;-78
2023/01/05 02:40:36;;;;;;;;;;;2.70;99.90;;;;;;4982348;28;19918;-78
2023/01/05 02:43:04;;;;;;;;;;;2.70;99.90;;;;;;4976956;28;19910;-78
2023/01/05 02:45:30;;;;;;;;;;;2.60;99.90;;;;;;4982688;28;19913;-78
2023/01/05 02:47:56;;;;;;;;;;;2.60;99.90;;;;;;4979000;28;19898;-78
2023/01/05 02:50:26;;;;;;;;;;;2.40;99.90;;;;;;4984619;28;19917;-78
2023/01/05 02:53:08;;;;;;;;;;;2.70;99.90;;;;;;5000904;28;19956;-80
2023/01/05 02:55:39;;;;;;;;;;;2.20;99.90;;;;;;5022605;28;19913;-78
2023/01/05 02:58:09;;;;;;;;;;;2.20;99.90;;;;;;5023216;28;19916;-78
2023/01/05 03:00:39;;;;;;;;;;;2.30;99.90;;;;;;5026148;28;20596;-78
2023/01/05 03:03:23;;;;;;;;;;;2.30;99.90;;;;;;5003021;28;19910;-80
2023/01/05 03:05:56;;;;;;;;;;;2.20;99.90;;;;;;5022634;28;19913;-78
2023/01/05 03:08:23;;;;;;;;;;;2.20;99.90;;;;;;5009472;28;20569;-78
2023/01/05 03:14:11;;;;;;;;;;;2.30;99.90;;;;;;5024259;28;19937;-78
2023/01/05 03:16:45;;;;;;;;;;;2.10;99.90;;;;;;5024203;28;19940;-78
2023/01/05 03:35:49;;;;;;;;;;;1.80;99.90;;;;;;5019597;28;19917;-78
2023/01/05 03:38:30;;;;;;;;;;;1.80;99.90;;;;;;5000321;28;20012;-77
2023/01/05 03:40:57;;;;;;;;;;;1.80;99.90;;;;;;5018303;28;19925;-78
2023/01/05 03:43:27;;;;;;;;;;;1.80;99.90;;;;;;5020926;28;19912;-80
2023/01/05 03:45:53;;;;;;;;;;;1.90;99.90;;;;;;5006228;28;20541;-78
2023/01/05 03:48:20;;;;;;;;;;;1.80;99.90;;;;;;5020777;28;19929;-78
2023/01/05 03:50:46;;;;;;;;;;;2.20;99.90;;;;;;5021688;28;19905;-79
2023/01/05 03:53:12;;;;;;;;;;;2.00;99.90;;;;;;5008030;28;19985;-77
2023/01/05 03:55:38;;;;;;;;;;;1.80;99.90;;;;;;5026064;28;19909;-77
2023/01/05 03:58:04;;;;;;;;;;;1.90;99.90;;;;;;5023044;28;20004;-79
2023/01/05 04:00:31;;;;;;;;;;;1.00;99.90;;;;;;5022437;28;19936;-78
2023/01/05 04:03:02;;;;;;;;;;;1.90;99.90;;;;;;5021527;28;20158;-77
2023/01/05 04:05:55;;;;;;;;;;;1.90;99.90;;;;;;5022074;28;19905;-78
2023/01/05 04:08:22;;;;;;;;;;;1.90;99.90;;;;;;5007809;28;19910;-78
2023/01/05 04:10:50;;;;;;;;;;;1.90;99.90;;;;;;5000814;28;19953;-78
2023/01/05 04:13:16;;;;;;;;;;;1.40;99.90;;;;;;5021018;28;19909;-79
2023/01/05 04:15:43;;;;;;;;;;;1.90;99.90;;;;;;5010228;28;19910;-78
2023/01/05 04:18:09;;;;;;;;;;;1.90;99.90;;;;;;5009167;28;19909;-77
2023/01/05 04:20:38;;;;;;;;;;;1.80;99.90;;;;;;5009790;28;19957;-81
2023/01/05 04:23:06;;;;;;;;;;;1.80;99.90;;;;;;5008854;28;19910;-80
2023/01/05 04:25:33;;;;;;;;;;;1.80;99.90;;;;;;4994302;28;19988;-81
2023/01/05 04:28:00;;;;;;;;;;;1.80;99.90;;;;;;5011558;28;20401;-80
2023/01/05 04:30:26;;;;;;;;;;;1.80;99.90;;;;;;5015811;28;19909;-80
2023/01/05 04:32:52;;;;;;;;;;;1.80;99.90;;;;;;5019078;28;19905;-81
2023/01/05 04:35:18;;;;;;;;;;;1.70;99.90;;;;;;5016270;28;20595;-78
2023/01/05 04:37:45;;;;;;;;;;;1.60;99.90;;;;;;5017164;28;19905;-78
2023/01/05 04:40:11;;;;;;;;;;;1.50;99.90;;;;;;5020052;28;19917;-78
2023/01/05 04:42:37;;;;;;;;;;;1.40;99.90;;;;;;5023715;28;19948;-78
2023/01/05 04:45:03;;;;;;;;;;;1.50;99.90;;;;;;5018937;28;19909;-78
2023/01/05 04:47:33;;;;;;;;;;;1.50;99.90;;;;;;5016986;28;19913;-78
2023/01/05 04:49:59;;;;;;;;;;;1.50;99.90;;;;;;5015628;28;19917;-79
2023/01/05 04:52:24;;;;;;;;;;;1.50;99.90;;;;;;4999794;28;19905;-78
2023/01/05 04:54:50;;;;;;;;;;;1.40;99.90;;;;;;5020320;28;19971;-78
2023/01/05 04:57:15;;;;;;;;;;;1.30;99.90;;;;;;4998499;28;20008;-77
2023/01/05 04:59:41;;;;;;;;;;;1.20;99.90;;;;;;5022909;28;20239;-79
2023/01/05 05:02:07;;;;;;;;;;;1.10;99.90;;;;;;5005463;28;19948;-78
2023/01/05 05:04:39;;;;;;;;;;;1.20;99.90;;;;;;5023614;28;20418;-78
2023/01/05 05:07:09;;;;;;;;;;;1.20;99.90;;;;;;5006192;28;20469;-80
2023/01/05 05:09:34;;;;;;;;;;;1.20;99.90;;;;;;5017467;28;19948;-79
2023/01/05 05:12:01;;;;;;;;;;;1.20;99.90;;;;;;5000054;28;19910;-79
2023/01/05 05:14:27;;;;;;;;;;;1.20;99.90;;;;;;5021469;28;19928;-78
2023/01/05 05:16:52;;;;;;;;;;;1.20;99.90;;;;;;5019201;28;20573;-79
2023/01/05 05:19:18;;;;;;;;;;;1.10;99.90;;;;;;4999201;28;19917;-78
2023/01/05 05:21:44;;;;;;;;;;;1.10;99.90;;;;;;5017879;28;19910;-78
2023/01/05 05:24:13;;;;;;;;;;;1.10;99.90;;;;;;4999767;28;19910;-79
2023/01/05 05:26:42;;;;;;;;;;;1.10;99.90;;;;;;5027106;28;19977;-78
2023/01/05 05:29:09;;;;;;;;;;;1.00;99.90;;;;;;5037878;28;19916;-78
2023/01/05 05:31:37;;;;;;;;;;;1.00;99.90;;;;;;5038680;28;19916;-79
2023/01/05 05:34:04;;;;;;;;;;;0.90;99.90;;;;;;5035375;28;19975;-78
2023/01/05 05:36:35;;;;;;;;;;;0.80;99.90;;;;;;5035104;28;19963;-78
2023/01/05 05:39:00;;;;;;;;;;;0.60;99.90;;;;;;5017398;28;19960;-77
2023/01/05 05:41:26;;;;;;;;;;;2.60;99.90;;;;;;5013485;28;19926;-78
2023/01/05 05:43:52;;;;;;;;;;;0.90;99.90;;;;;;5011566;28;20606;-79
2023/01/05 05:46:18;;;;;;;;;;;0.90;99.90;;;;;;5016137;28;19952;-78
2023/01/05 05:48:46;;;;;;;;;;;1.00;99.90;;;;;;5017270;28;19952;-77
2023/01/05 05:51:11;;;;;;;;;;;1.00;99.90;;;;;;4998597;28;19905;-79
2023/01/05 05:53:37;;;;;;;;;;;1.10;99.90;;;;;;5000800;28;19922;-79
2023/01/05 05:56:03;;;;;;;;;;;1.00;99.90;;;;;;5020532;28;19953;-77
2023/01/05 05:58:29;;;;;;;;;;;0.70;99.90;;;;;;5019832;28;19910;-80
2023/01/05 06:00:58;;;;;;;;;;;1.10;99.90;;;;;;5017300;28;19921;-79
2023/01/05 06:03:23;;;;;;;;;;;1.10;99.90;;;;;;5013001;28;19909;-80
2023/01/05 06:05:49;;;;;;;;;;;1.20;99.90;;;;;;5018117;28;19997;-78
2023/01/05 06:08:15;;;;;;;;;;;1.10;99.90;;;;;;5015336;28;19910;-79
2023/01/05 06:10:40;;;;;;;;;;;1.10;99.90;;;;;;5015402;28;19905;-79
2023/01/05 06:13:06;;;;;;;;;;;1.10;99.90;;;;;;5016243;28;19974;-79
2023/01/05 06:15:31;;;;;;;;;;;1.10;99.90;;;;;;5013238;28;20034;-78
2023/01/05 06:17:58;;;;;;;;;;;1.20;99.90;;;;;;5009543;28;19917;-78
2023/01/05 06:20:23;;;;;;;;;;;1.20;99.90;;;;;;4995779;28;19965;-80
2023/01/05 06:22:49;;;;;;;;;;;1.20;99.90;;;;;;4994778;28;19906;-78
2023/01/05 06:25:39;;;;;;;;;;;1.30;99.90;;;;;;5018065;28;19906;-79
2023/01/05 06:28:07;;;;;;;;;;;1.20;99.90;;;;;;5022417;28;19912;-79
2023/01/05 06:30:45;;;;;;;;;;;1.30;99.90;;;;;;5006863;28;19917;-79
2023/01/05 06:33:10;;;;;;;;;;;1.30;99.90;;;;;;5019924;28;19969;-80
2023/01/05 06:35:36;;;;;;;;;;;1.30;99.90;;;;;;5019874;28;19910;-77
2023/01/05 06:38:03;;;;;;;;;;;2.20;99.90;;;;;;5022366;28;19985;-79
2023/01/05 06:40:28;;;;;;;;;;;4.20;99.90;;;;;;5006575;28;19925;-78
2023/01/05 06:42:54;;;;;;;;;;;1.40;99.90;;;;;;5006584;28;19905;-77
2023/01/05 06:45:20;;;;;;;;;;;1.40;99.90;;;;;;5026189;28;20422;-76
2023/01/05 06:47:45;;;;;;;;;;;1.40;99.90;;;;;;5019268;28;20458;-76
2023/01/05 06:50:11;;;;;;;;;;;1.40;99.90;;;;;;5010418;28;19917;-77
2023/01/05 06:52:38;;;;;;;;;;;1.20;99.90;;;;;;5010281;28;20423;-78
2023/01/05 06:55:08;;;;;;;;;;;1.20;99.90;;;;;;5009445;28;20303;-79
2023/01/05 06:57:35;;;;;;;;;;;1.20;99.90;;;;;;4989594;28;20016;-77
2023/01/05 07:00:02;;;;;;;;;;;1.30;99.90;;;;;;4988347;28;19977;-78
2023/01/05 07:02:28;;;;;;;;;;;1.30;99.90;;;;;;5007682;28;19921;-79
2023/01/05 07:04:53;;;;;;;;;;;1.20;99.90;;;;;;5008692;28;20583;-78
2023/01/05 07:07:19;;;;;;;;;;;1.30;99.90;;;;;;5016670;28;19917;-77
2023/01/05 07:09:52;;;;;;;;;;;3.00;99.90;;;;;;5009854;28;19996;-82
2023/01/05 07:12:17;;;;;;;;;;;1.30;99.90;;;;;;5022503;28;20003;-80
2023/01/05 07:14:44;;;;;;;;;;;1.30;99.90;;;;;;5020976;28;19905;-80
2023/01/05 07:17:11;;;;;;;;;;;1.40;99.90;;;;;;5018305;28;19916;-79
2023/01/05 07:19:38;;;;;;;;;;;1.40;99.90;;;;;;5018691;28;19918;-79
2023/01/05 07:22:07;;;;;;;;;;;1.40;99.90;;;;;;5016645;28;20380;-78
2023/01/05 07:24:32;;;;;;;;;;;1.40;99.90;;;;;;4995755;28;20005;-77
2023/01/05 07:26:58;;;;;;;;;;;1.40;99.90;;;;;;5012689;28;20525;-78
2023/01/05 07:29:24;;;;;;;;;;;1.40;99.90;;;;;;5011260;28;19905;-80
2023/01/05 07:31:52;;;;;;;;;;;1.40;99.90;;;;;;5008045;28;19914;-79
2023/01/05 07:34:18;;;;;;;;;;;1.40;99.90;;;;;;5013948;28;19909;-80
2023/01/05 07:36:44;;;;;;;;;;;1.40;99.90;;;;;;4979026;28;20404;-79
2023/01/05 07:39:09;;;;;;;;;;;1.40;99.90;;;;;;4991637;28;19925;-80
2023/01/05 07:41:35;;;;;;;;;;;1.20;99.90;;;;;;4994608;28;20582;-79
2023/01/05 07:44:01;;;;;;;;;;;1.30;99.90;;;;;;4994171;28;19910;-79
2023/01/05 07:46:26;;;;;;;;;;;1.30;99.90;;;;;;4993133;28;19909;-78
2023/01/05 07:48:52;;;;;;;;;;;1.50;99.90;;;;;;4997127;28;20008;-80
2023/01/05 07:51:17;;;;;;;;;;;1.60;99.90;;;;;;4994518;28;19913;-76
2023/01/05 07:53:43;;;;;;;;;;;1.70;99.90;;;;;;5002629;28;19928;-78
2023/01/05 07:56:10;;;;;;;;;;;1.80;99.90;;;;;;4990225;28;19920;-80
2023/01/05 07:58:35;;;;;;;;;;;2.00;99.90;;;;;;5015960;28;19905;-77
2023/01/05 08:01:03;;;;;;;;;;;2.10;99.90;;;;;;5011607;28;20635;-77
2023/01/05 08:03:30;;;;;;;;;;;2.10;99.90;;;;;;5007961;28;19910;-78
2023/01/05 08:05:56;;;;;;;;;;;2.30;99.90;;;;;;5026816;28;20626;-78
2023/01/05 08:08:22;;;;;;;;;;;2.30;99.90;;;;;;5029555;28;19917;-78
2023/01/05 08:10:48;;;;;;;;;;;2.40;99.90;;;;;;5010426;28;19913;-78
2023/01/05 08:16:01;;;;;;;;;;;1.70;99.90;;;;;;5023858;28;20285;-78
2023/01/05 08:18:32;;;;;;;;;;;2.90;99.90;;;;;;4979921;28;20293;-78
2023/01/05 08:21:03;;;;;;;;;;;3.00;99.90;;;;;;5018545;28;20553;-77
2023/01/05 08:23:29;;;;;;;;;;;0.20;99.90;;;;;;4995283;28;20463;-78
2023/01/05 08:26:02;;;;;;;;;;;2.10;99.90;;;;;;4997425;28;19980;-79
2023/01/05 08:28:29;;;;;;;;;;;3.10;99.90;;;;;;5003750;28;19941;-77
2023/01/05 08:31:07;;;;;;;;;;;2.90;99.90;;;;;;4997913;28;19910;-77
2023/01/05 08:33:34;;;;;;;;;;;3.00;99.90;;;;;;5017786;28;20051;-78
2023/01/05 08:36:00;;;;;;;;;;;3.20;99.90;;;;;;5035845;28;19905;-79
2023/01/05 08:38:25;;;;;;;;;;;3.30;99.90;;;;;;5027366;28;20384;-79
2023/01/05 08:40:51;;;;;;;;;;;3.50;99.90;;;;;;4996584;28;19969;-77
2023/01/05 08:43:17;;;;;;;;;;;3.60;99.90;;;;;;4996353;28;19909;-79
2023/01/05 08:45:47;;;;;;;;;;;3.70;99.90;;;;;;5005327;28;19906;-78
2023/01/05 08:48:14;;;;;;;;;;;3.90;99.90;;;;;;5003178;28;20009;-78
2023/01/05 08:50:40;;;;;;;;;;;4.10;99.90;;;;;;4999594;28;20002;-77
2023/01/05 08:53:06;;;;;;;;;;;4.10;99.90;;;;;;5024719;28;20368;-78
2023/01/05 08:55:32;;;;;;;;;;;4.20;99.90;;;;;;5025123;28;19921;-77
2023/01/05 08:57:58;;;;;;;;;;;4.30;99.90;;;;;;5012177;28;19909;-78
2023/01/05 09:00:24;;;;;;;;;;;4.20;99.90;;;;;;5017609;28;19940;-78
2023/01/05 09:02:51;;;;;;;;;;;4.20;99.90;;;;;;5011362;28;19953;-78
2023/01/05 09:05:17;;;;;;;;;;;4.10;99.90;;;;;;5010694;28;20472;-78
2023/01/05 09:07:43;;;;;;;;;;;4.00;99.90;;;;;;4992058;28;19917;-78
2023/01/05 09:10:10;;;;;;;;;;;3.90;99.90;;;;;;5017577;28;19959;-77
2023/01/05 09:12:36;;;;;;;;;;;3.90;99.90;;;;;;5013761;28;19913;-77
2023/01/05 09:15:02;;;;;;;;;;;3.40;99.90;;;;;;5013427;28;19909;-77
2023/01/05 09:17:27;;;;;;;;;;;3.90;99.90;;;;;;4994822;28;19920;-78
2023/01/05 09:19:53;;;;;;;;;;;3.90;99.90;;;;;;5007555;28;19913;-78
2023/01/05 09:22:19;;;;;;;;;;;4.00;99.90;;;;;;5006485;28;19921;-78
2023/01/05 09:24:45;;;;;;;;;;;4.00;99.90;;;;;;5007533;28;19952;-78
2023/01/05 09:27:10;;;;;;;;;;;4.10;99.90;;;;;;5022574;28;19906;-78
2023/01/05 09:29:39;;;;;;;;;;;4.20;99.90;;;;;;5012940;28;20403;-78
2023/01/05 09:32:07;;;;;;;;;;;4.30;99.90;;;;;;5009382;28;19909;-77
2023/01/05 09:34:33;;;;;;;;;;;4.80;99.90;;;;;;5012950;28;19981;-78
2023/01/05 09:37:01;;;;;;;;;;;4.50;99.90;;;;;;5013533;28;19917;-78
2023/01/05 09:39:26;;;;;;;;;;;4.50;99.90;;;;;;5010065;28;19960;-77
2023/01/05 09:42:07;;;;;;;;;;;4.50;99.90;;;;;;4993392;28;19940;-79
2023/01/05 09:44:36;;;;;;;;;;;4.60;99.90;;;;;;5012799;28;20620;-79
2023/01/05 09:47:12;;;;;;;;;;;4.80;99.90;;;;;;5000524;28;19905;-78
2023/01/05 09:49:39;;;;;;;;;;;4.90;99.90;;;;;;5014061;28;19980;-81
2023/01/05 09:52:08;;;;;;;;;;;5.20;99.90;;;;;;5008514;28;19910;-79
2023/01/05 09:54:35;;;;;;;;;;;5.30;99.90;;;;;;5006252;28;20001;-79
2023/01/05 09:57:04;;;;;;;;;;;5.40;99.90;;;;;;4990604;28;19946;-77
2023/01/05 09:59:35;;;;;;;;;;;5.40;99.90;;;;;;5005229;28;20514;-83
2023/01/05 10:02:06;;;;;;;;;;;5.50;99.90;;;;;;5018029;28;19929;-83
2023/01/05 10:04:40;;;;;;;;;;;5.40;99.90;;;;;;5019886;28;20616;-81
2023/01/05 10:07:15;;;;;;;;;;;5.40;99.90;;;;;;5010867;28;19909;-78
2023/01/05 10:09:42;;;;;;;;;;;7.30;99.90;;;;;;5013322;28;19913;-79
2023/01/05 10:14:55;;;;;;;;;;;5.50;99.90;;;;;;5013238;28;20464;-77
2023/01/05 10:17:21;;;;;;;;;;;5.40;99.90;;;;;;4994504;28;19909;-78
2023/01/05 10:19:50;;;;;;;;;;;5.40;99.90;;;;;;4992938;28;19918;-76
2023/01/05 10:22:30;;;;;;;;;;;5.70;99.90;;;;;;5014977;28;19978;-77
2023/01/05 10:25:16;;;;;;;;;;;6.20;99.90;;;;;;5033182;28;19909;-77
2023/01/05 10:27:48;;;;;;;;;;;6.40;99.90;;;;;;5032699;28;19913;-77
2023/01/05 10:30:22;;;;;;;;;;;6.60;99.90;;;;;;5030481;28;19995;-77
2023/01/05 10:33:01;;;;;;;;;;;6.70;99.90;;;;;;5016893;28;19917;-77
2023/01/05 10:35:45;;;;;;;;;;;6.90;99.90;;;;;;5014494;28;19913;-79
2023/01/05 10:38:17;;;;;;;;;;;7.40;99.90;;;;;;5019478;28;19909;-78
2023/01/05 10:41:10;;;;;;;;;;;7.40;99.90;;;;;;5015619;28;19919;-78
2023/01/05 10:43:52;;;;;;;;;;;7.80;99.90;;;;;;5028007;28;19910;-78
2023/01/05 10:46:29;;;;;;;;;;;8.00;99.90;;;;;;5032124;28;19906;-78
2023/01/05 10:51:34;;;;;;;;;;;8.00;99.90;;;;;;5008093;23;19926;-77
2023/01/05 10:54:01;;;;;;;;;;;8.00;99.90;;;;;;4992855;28;19906;-78
2023/01/05 10:56:28;;;;;;;;;;;8.10;99.90;;;;;;4994192;28;19914;-79
2023/01/05 10:59:24;;;;;;;;;;;8.20;99.90;;;;;;4989370;28;19906;-77
2023/01/05 11:01:49;;;;;;;;;;;7.90;99.90;;;;;;4941837;29;19929;-77
2023/01/05 11:04:17;;;;;;;;;;;8.00;99.90;;;;;;4947195;29;19959;-77
2023/01/05 11:06:43;;;;;;;;;;;7.80;99.90;;;;;;4945907;29;19916;-77
2023/01/05 11:09:19;;;;;;;;;;;7.90;99.90;;;;;;4957268;29;20009;-77
2023/01/05 11:12:00;;;;;;;;;;;7.90;99.90;;;;;;4955920;28;19917;-77
2023/01/05 11:14:29;;;;;;;;;;;8.30;99.90;;;;;;4945816;29;19973;-77
2023/01/05 11:17:00;;;;;;;;;;;6.50;99.90;;;;;;4948750;29;20396;-77
2023/01/05 11:19:30;;;;;;;;;;;8.50;99.90;;;;;;4943471;29;20457;-77
2023/01/05 11:21:57;;;;;;;;;;;8.10;99.90;;;;;;4950417;28;19907;-77
2023/01/05 11:24:23;;;;;;;;;;;8.80;99.90;;;;;;4971369;28;19934;-78
2023/01/05 11:26:57;;;;;;;;;;;8.90;99.90;;;;;;4973833;28;19910;-77
2023/01/05 11:29:23;;;;;;;;;;;9.10;99.90;;;;;;4960784;28;19914;-77
2023/01/05 11:32:05;;;;;;;;;;;9.10;99.90;;;;;;4964170;28;19945;-78
2023/01/05 11:34:44;;;;;;;;;;;9.70;99.90;;;;;;4972065;28;20337;-78
2023/01/05 11:37:25;;;;;;;;;;;7.70;99.90;;;;;;4963119;28;19911;-77
2023/01/05 11:40:00;;;;;;;;;;;9.00;99.90;;;;;;4987920;28;19925;-77
2023/01/05 11:42:28;;;;;;;;;;;9.00;99.90;;;;;;5014533;28;19910;-77
2023/01/05 11:44:58;;;;;;;;;;;9.00;99.90;;;;;;4998996;28;19925;-78
2023/01/05 11:47:28;;;;;;;;;;;8.60;99.90;;;;;;4992630;28;19918;-82
2023/01/05 11:49:59;;;;;;;;;;;8.90;99.90;;;;;;5010011;28;20430;-79
2023/01/05 11:52:28;;;;;;;;;;;9.10;99.90;;;;;;5007237;28;19910;-78
2023/01/05 11:54:54;;;;;;;;;;;9.40;99.90;;;;;;5026856;28;19905;-79
2023/01/05 11:57:23;;;;;;;;;;;9.80;99.90;;;;;;5010838;28;20000;-79
2023/01/05 11:59:52;;;;;;;;;;;10.20;99.90;;;;;;5021332;28;19917;-75
2023/01/05 12:02:38;;;;;;;;;;;10.40;99.90;;;;;;5021390;28;19952;-78
2023/01/05 12:05:22;;;;;;;;;;;10.70;99.90;;;;;;5018423;28;19910;-77
2023/01/05 12:07:52;;;;;;;;;;;10.70;99.90;;;;;;5008996;28;19932;-80
2023/01/05 12:10:23;;;;;;;;;;;10.70;99.90;;;;;;5010083;28;19913;-77
2023/01/05 12:12:54;;;;;;;;;;;10.70;99.90;;;;;;5007560;28;19909;-79
2023/01/05 12:15:40;;;;;;;;;;;10.50;99.90;;;;;;4973745;28;19910;-75
2023/01/05 12:18:24;;;;;;;;;;;10.40;99.90;;;;;;4992101;28;20078;-77
2023/01/05 12:21:10;;;;;;;;;;;10.20;99.90;;;;;;5016222;28;19913;-79
2023/01/05 12:23:44;;;;;;;;;;;10.00;99.90;;;;;;5021273;28;19909;-80
2023/01/05 12:26:19;;;;;;;;;;;9.90;99.90;;;;;;5021776;28;19909;-77
2023/01/05 12:29:03;;;;;;;;;;;9.90;99.90;;;;;;5006249;28;19909;-77
2023/01/05 12:31:40;;;;;;;;;;;9.90;99.90;;;;;;5005383;28;19960;-78
2023/01/05 12:34:24;;;;;;;;;;;9.70;99.90;;;;;;4997398;28;19909;-76
2023/01/05 12:37:15;;;;;;;;;;;9.60;99.90;;;;;;5000071;28;19932;-78
2023/01/05 12:40:03;;;;;;;;;;;7.50;99.90;;;;;;4936597;29;19926;-76
2023/01/05 12:42:49;;;;;;;;;;;10.00;99.90;;;;;;4959158;29;19917;-84
2023/01/05 12:45:14;;;;;;;;;;;10.20;99.90;;;;;;4923219;29;19911;-79
2023/01/05 12:47:50;;;;;;;;;;;10.60;99.90;;;;;;4909116;29;19919;-77
2023/01/05 12:50:18;;;;;;;;;;;10.80;99.90;;;;;;4889839;29;19979;-79
2023/01/05 12:52:46;;;;;;;;;;;11.00;99.90;;;;;;4896816;29;19912;-76
2023/01/05 12:55:25;;;;;;;;;;;11.20;99.90;;;;;;4892519;29;19916;-77
2023/01/05 12:57:56;;;;;;;;;;;11.20;99.90;;;;;;4893514;29;19934;-77
2023/01/05 13:00:24;;;;;;;;;;;11.30;99.90;;;;;;4887260;29;20067;-77
2023/01/05 13:02:52;;;;;;;;;;;11.40;99.90;;;;;;4902601;29;20422;-80
2023/01/05 13:05:29;;;;;;;;;;;11.80;99.90;;;;;;4887578;29;19911;-76
2023/01/05 13:08:16;;;;;;;;;;;11.30;99.90;;;;;;4902370;29;19911;-79
2023/01/05 13:10:41;;;;;;;;;;;11.40;99.90;;;;;;4892911;29;20610;-77
2023/01/05 13:13:11;;;;;;;;;;;11.40;99.90;;;;;;4903280;29;19950;-85
2023/01/05 13:15:57;;;;;;;;;;;11.50;99.90;;;;;;4904274;29;20524;-76
2023/01/05 13:18:24;;;;;;;;;;;11.40;99.90;;;;;;4919741;29;20010;-82
2023/01/05 13:20:53;;;;;;;;;;;11.50;99.90;;;;;;4921100;29;19918;-81
2023/01/05 13:23:27;;;;;;;;;;;11.50;99.90;;;;;;4957556;28;19910;-79
2023/01/05 13:25:56;;;;;;;;;;;11.50;99.90;;;;;;4962159;28;19910;-78
2023/01/05 13:28:22;;;;;;;;;;;11.60;99.90;;;;;;4958007;28;19944;-76
2023/01/05 13:30:53;;;;;;;;;;;11.80;99.90;;;;;;4960938;28;20459;-77
2023/01/05 13:33:22;;;;;;;;;;;11.90;99.90;;;;;;4960669;28;20456;-77
2023/01/05 13:35:56;;;;;;;;;;;11.80;99.90;;;;;;4961407;28;19922;-77
2023/01/05 13:38:22;;;;;;;;;;;11.90;99.90;;;;;;4980809;28;19918;-76
2023/01/05 13:40:55;;;;;;;;;;;11.90;99.90;;;;;;4979946;28;19925;-80
2023/01/05 13:43:39;;;;;;;;;;;11.90;99.90;;;;;;4980321;28;19909;-77
2023/01/05 13:46:05;;;;;;;;;;;11.90;99.90;;;;;;4962962;28;19909;-77
2023/01/05 13:48:43;;;;;;;;;;;11.90;99.90;;;;;;4979925;28;19936;-78
2023/01/05 13:51:11;;;;;;;;;;;11.80;99.90;;;;;;4981231;28;19925;-77
2023/01/05 13:53:39;;;;;;;;;;;11.90;99.90;;;;;;4980824;28;19944;-80
2023/01/05 13:56:08;;;;;;;;;;;11.90;99.90;;;;;;4980658;28;19909;-77
2023/01/05 13:58:40;;;;;;;;;;;11.90;99.90;;;;;;4980129;28;19910;-76
2023/01/05 14:01:19;;;;;;;;;;;12.20;99.90;;;;;;4979983;28;20158;-82
2023/01/05 14:03:47;;;;;;;;;;;11.90;99.90;;;;;;4980214;28;19914;-78
2023/01/05 14:06:24;;;;;;;;;;;11.80;99.90;;;;;;4981230;28;19979;-79
2023/01/05 14:08:55;;;;;;;;;;;11.90;99.90;;;;;;4979734;28;19961;-79
2023/01/05 14:11:22;;;;;;;;;;;11.90;99.90;;;;;;4979633;28;19910;-80
2023/01/05 14:13:47;;;;;;;;;;;12.00;99.90;;;;;;4979738;28;19980;-78
2023/01/05 14:16:32;;;;;;;;;;;12.10;99.90;;;;;;4979307;28;19922;-85
2023/01/05 14:19:09;;;;;;;;;;;13.20;99.90;;;;;;4979652;28;20000;-79
2023/01/05 14:21:47;;;;;;;;;;;12.30;99.90;;;;;;4979048;28;19972;-84
2023/01/05 14:24:31;;;;;;;;;;;12.30;99.90;;;;;;4978813;28;19956;-82
2023/01/05 14:26:59;;;;;;;;;;;10.50;99.90;;;;;;4979049;28;20143;-76
2023/01/05 14:29:43;;;;;;;;;;;12.60;99.90;;;;;;4979034;28;19941;-80
2023/01/05 14:32:24;;;;;;;;;;;12.50;99.90;;;;;;4979466;28;20464;-79
2023/01/05 14:34:52;;;;;;;;;;;10.20;99.90;;;;;;4978746;28;19914;-78
2023/01/05 14:37:22;;;;;;;;;;;12.40;99.90;;;;;;4979331;28;20368;-77
2023/01/05 14:39:51;;;;;;;;;;;12.40;99.90;;;;;;4979227;28;19976;-77
2023/01/05 14:42:21;;;;;;;;;;;12.30;99.90;;;;;;4981158;28;19906;-76
2023/01/05 14:44:49;;;;;;;;;;;12.80;99.90;;;;;;4979277;28;19909;-80
2023/01/05 14:47:15;;;;;;;;;;;12.00;99.90;;;;;;4982949;28;19913;-77
2023/01/05 14:49:50;;;;;;;;;;;11.80;99.90;;;;;;4984914;28;20012;-76
2023/01/05 14:52:16;;;;;;;;;;;11.60;99.90;;;;;;4968042;28;19921;-76
2023/01/05 14:54:42;;;;;;;;;;;11.30;99.90;;;;;;4971100;28;19914;-81
2023/01/05 14:57:33;;;;;;;;;;;11.10;99.90;;;;;;4985486;28;19922;-77
2023/01/05 15:00:19;;;;;;;;;;;10.70;99.90;;;;;;4969947;28;19921;-76
2023/01/05 15:02:47;;;;;;;;;;;10.60;99.90;;;;;;4997723;28;20131;-77
2023/01/05 15:05:14;;;;;;;;;;;10.50;99.90;;;;;;4993398;28;19986;-77
2023/01/05 15:07:40;;;;;;;;;;;9.90;99.90;;;;;;4993964;28;19910;-76
2023/01/05 15:10:11;;;;;;;;;;;10.10;99.90;;;;;;4994237;28;19909;-76
2023/01/05 15:12:56;;;;;;;;;;;9.90;99.90;;;;;;4988254;28;19910;-76
2023/01/05 15:15:35;;;;;;;;;;;9.70;99.90;;;;;;4988036;28;20501;-79
2023/01/05 15:18:14;;;;;;;;;;;7.90;99.90;;;;;;4992652;28;19909;-78
2023/01/05 15:20:58;;;;;;;;;;;9.10;99.90;;;;;;4990427;28;19918;-76
2023/01/05 15:23:45;;;;;;;;;;;8.90;99.90;;;;;;4988222;28;19914;-75
2023/01/05 15:26:34;;;;;;;;;;;8.80;99.90;;;;;;4988846;28;19910;-76